sensor_id;sensor_type;location;lat;lon;timestamp;temperature;humidity
26081;DHT22;13991;51.174;4.438;2023-08-30T00:00:40;15.30;99.90
26081;DHT22;13991;51.174;4.438;2023-08-30T00:03:06;15.30;99.90
26081;DHT22;13991;51.174;4.438;2023-08-30T00:05:32;15.20;99.90
26081;DHT22;13991;51.174;4.438;2023-08-30T00:07:58;15.20;99.90
26081;DHT22;13991;51.174;4.438;2023-08-30T00:10:24;15.20;99.90
26081;DHT22;13991;51.174;4.438;2023-08-30T00:12:50;15.30;99.90
26081;DHT22;13991;51.174;4.438;2023-08-30T00:15:15;15.30;99.90
26081;DHT22;13991;51.174;4.438;2023-08-30T00:17:41;15.30;99.90
26081;DHT22;13991;51.174;4.438;2023-08-30T00:20:07;15.20;99.90
26081;DHT22;13991;51.174;4.438;2023-08-30T00:22:34;15.20;99.90
26081;DHT22;13991;51.174;4.438;2023-08-30T00:25:01;15.20;99.90
26081;DHT22;13991;51.174;4.438;2023-08-30T00:27:26;15.20;99.90
26081;DHT22;13991;51.174;4.438;2023-08-30T00:29:52;15.20;99.90
26081;DHT22;13991;51.174;4.438;2023-08-30T00:32:17;15.20;99.90
26081;DHT22;13991;51.174;4.438;2023-08-30T00:34:43;15.20;99.90
26081;DHT22;13991;51.174;4.438;2023-08-30T00:37:09;15.20;99.90
26081;DHT22;13991;51.174;4.438;2023-08-30T00:39:37;15.20;99.90
26081;DHT22;13991;51.174;4.438;2023-08-30T00:42:04;15.30;99.90
26081;DHT22;13991;51.174;4.438;2023-08-30T00:44:31;15.30;99.90
26081;DHT22;13991;51.174;4.438;2023-08-30T00:46:57;15.30;99.90
26081;DHT22;13991;51.174;4.438;2023-08-30T00:49:24;15.30;99.90
26081;DHT22;13991;51.174;4.438;2023-08-30T00:51:50;15.30;99.90
26081;DHT22;13991;51.174;4.438;2023-08-30T00:54:16;15.30;99.90
26081;DHT22;13991;51.174;4.438;2023-08-30T00:56:42;15.40;99.90
26081;DHT22;13991;51.174;4.438;2023-08-30T00:59:08;15.40;99.90
26081;DHT22;13991;51.174;4.438;2023-08-30T01:01:33;15.40;99.90
26081;DHT22;13991;51.174;4.438;2023-08-30T01:03:59;15.40;99.90
26081;DHT22;13991;51.174;4.438;2023-08-30T01:06:26;15.40;99.90
26081;DHT22;13991;51.174;4.438;2023-08-30T01:08:52;15.40;99.90
26081;DHT22;13991;51.174;4.438;2023-08-30T01:11:30;15.40;99.90
26081;DHT22;13991;51.174;4.438;2023-08-30T01:14:07;15.50;99.90
26081;DHT22;13991;51.174;4.438;2023-08-30T01:16:35;15.40;99.90
26081;DHT22;13991;51.174;4.438;2023-08-30T01:19:10;15.50;99.90
26081;DHT22;13991;51.174;4.438;2023-08-30T01:22:17;15.50;99.90
26081;DHT22;13991;51.174;4.438;2023-08-30T01:25:09;15.50;99.90
26081;DHT22;13991;51.174;4.438;2023-08-30T01:27:38;15.50;99.90
26081;DHT22;13991;51.174;4.438;2023-08-30T01:30:06;15.60;99.90
26081;DHT22;13991;51.174;4.438;2023-08-30T01:32:34;15.60;99.90
26081;DHT22;13991;51.174;4.438;2023-08-30T01:35:01;15.60;99.90
26081;DHT22;13991;51.174;4.438;2023-08-30T01:37:28;15.50;99.90
26081;DHT22;13991;51.174;4.438;2023-08-30T01:39:55;15.60;99.90
26081;DHT22;13991;51.174;4.438;2023-08-30T01:42:23;15.60;99.90
26081;DHT22;13991;51.174;4.438;2023-08-30T01:44:53;15.70;99.90
26081;DHT22;13991;51.174;4.438;2023-08-30T01:47:24;15.70;99.90
26081;DHT22;13991;51.174;4.438;2023-08-30T01:49:51;15.70;99.90
26081;DHT22;13991;51.174;4.438;2023-08-30T01:52:18;15.60;99.90
26081;DHT22;13991;51.174;4.438;2023-08-30T01:54:46;15.70;99.90
26081;DHT22;13991;51.174;4.438;2023-08-30T01:57:13;15.70;99.90
26081;DHT22;13991;51.174;4.438;2023-08-30T01:59:38;15.70;99.90
26081;DHT22;13991;51.174;4.438;2023-08-30T02:02:04;15.60;99.90
26081;DHT22;13991;51.174;4.438;2023-08-30T02:04:30;15.70;99.90
26081;DHT22;13991;51.174;4.438;2023-08-30T02:07:03;15.60;99.90
26081;DHT22;13991;51.174;4.438;2023-08-30T02:12:10;15.60;99.90
26081;DHT22;13991;51.174;4.438;2023-08-30T02:14:38;15.70;99.90
26081;DHT22;13991;51.174;4.438;2023-08-30T02:17:05;15.70;99.90
26081;DHT22;13991;51.174;4.438;2023-08-30T02:19:32;15.70;99.90
26081;DHT22;13991;51.174;4.438;2023-08-30T02:21:59;15.70;99.90
26081;DHT22;13991;51.174;4.438;2023-08-30T02:24:24;15.60;99.90
26081;DHT22;13991;51.174;4.438;2023-08-30T02:26:50;15.60;99.90
26081;DHT22;13991;51.174;4.438;2023-08-30T02:29:16;15.60;99.90
26081;DHT22;13991;51.174;4.438;2023-08-30T02:31:41;15.60;99.90
26081;DHT22;13991;51.174;4.438;2023-08-30T02:34:07;15.60;99.90
26081;DHT22;13991;51.174;4.438;2023-08-30T02:36:33;15.60;99.90
26081;DHT22;13991;51.174;4.438;2023-08-30T02:38:58;15.60;99.90
26081;DHT22;13991;51.174;4.438;2023-08-30T02:41:24;15.60;99.90
26081;DHT22;13991;51.174;4.438;2023-08-30T02:43:49;15.60;99.90
26081;DHT22;13991;51.174;4.438;2023-08-30T02:46:15;15.60;99.90
26081;DHT22;13991;51.174;4.438;2023-08-30T02:48:41;15.70;99.90
26081;DHT22;13991;51.174;4.438;2023-08-30T02:51:06;15.70;99.90
26081;DHT22;13991;51.174;4.438;2023-08-30T02:53:32;15.60;99.90
26081;DHT22;13991;51.174;4.438;2023-08-30T02:55:57;15.70;99.90
26081;DHT22;13991;51.174;4.438;2023-08-30T02:58:23;15.70;99.90
26081;DHT22;13991;51.174;4.438;2023-08-30T03:00:49;15.70;99.90
26081;DHT22;13991;51.174;4.438;2023-08-30T03:03:14;15.70;99.90
26081;DHT22;13991;51.174;4.438;2023-08-30T03:05:40;15.60;99.90
26081;DHT22;13991;51.174;4.438;2023-08-30T03:08:06;15.70;99.90
26081;DHT22;13991;51.174;4.438;2023-08-30T03:10:31;15.70;99.90
26081;DHT22;13991;51.174;4.438;2023-08-30T03:12:57;15.70;99.90
26081;DHT22;13991;51.174;4.438;2023-08-30T03:15:23;15.70;99.90
26081;DHT22;13991;51.174;4.438;2023-08-30T03:17:48;15.70;99.90
26081;DHT22;13991;51.174;4.438;2023-08-30T03:20:14;15.70;99.90
26081;DHT22;13991;51.174;4.438;2023-08-30T03:22:40;15.80;99.90
26081;DHT22;13991;51.174;4.438;2023-08-30T03:25:06;15.80;99.90
26081;DHT22;13991;51.174;4.438;2023-08-30T03:27:32;15.80;99.90
26081;DHT22;13991;51.174;4.438;2023-08-30T03:29:58;15.80;99.90
26081;DHT22;13991;51.174;4.438;2023-08-30T03:32:24;15.70;99.90
26081;DHT22;13991;51.174;4.438;2023-08-30T03:34:49;15.80;99.90
26081;DHT22;13991;51.174;4.438;2023-08-30T03:37:16;15.70;99.90
26081;DHT22;13991;51.174;4.438;2023-08-30T03:39:42;15.70;99.90
26081;DHT22;13991;51.174;4.438;2023-08-30T03:42:08;15.80;99.90
26081;DHT22;13991;51.174;4.438;2023-08-30T03:44:34;15.70;99.90
26081;DHT22;13991;51.174;4.438;2023-08-30T03:47:00;15.70;99.90
26081;DHT22;13991;51.174;4.438;2023-08-30T03:49:25;15.80;99.90
26081;DHT22;13991;51.174;4.438;2023-08-30T03:51:51;15.80;99.90
26081;DHT22;13991;51.174;4.438;2023-08-30T03:54:17;15.80;99.90
26081;DHT22;13991;51.174;4.438;2023-08-30T03:56:43;15.80;99.90
26081;DHT22;13991;51.174;4.438;2023-08-30T03:59:09;15.80;99.90
26081;DHT22;13991;51.174;4.438;2023-08-30T04:01:35;15.90;99.90
26081;DHT22;13991;51.174;4.438;2023-08-30T04:04:01;15.90;99.90
26081;DHT22;13991;51.174;4.438;2023-08-30T04:06:26;15.90;99.90
26081;DHT22;13991;51.174;4.438;2023-08-30T04:08:52;15.90;99.90
26081;DHT22;13991;51.174;4.438;2023-08-30T04:11:18;15.90;99.90
26081;DHT22;13991;51.174;4.438;2023-08-30T04:13:43;16.00;99.90
26081;DHT22;13991;51.174;4.438;2023-08-30T04:16:10;16.00;99.90
26081;DHT22;13991;51.174;4.438;2023-08-30T04:18:35;15.90;99.90
26081;DHT22;13991;51.174;4.438;2023-08-30T04:21:01;15.90;99.90
26081;DHT22;13991;51.174;4.438;2023-08-30T04:23:28;16.20;99.90
26081;DHT22;13991;51.174;4.438;2023-08-30T04:25:54;16.10;99.90
26081;DHT22;13991;51.174;4.438;2023-08-30T04:28:20;16.10;99.90
26081;DHT22;13991;51.174;4.438;2023-08-30T04:30:46;16.10;99.90
26081;DHT22;13991;51.174;4.438;2023-08-30T04:33:12;16.10;99.90
26081;DHT22;13991;51.174;4.438;2023-08-30T04:35:38;15.90;99.90
26081;DHT22;13991;51.174;4.438;2023-08-30T04:38:04;15.90;99.90
26081;DHT22;13991;51.174;4.438;2023-08-30T04:40:30;16.00;99.90
26081;DHT22;13991;51.174;4.438;2023-08-30T04:42:58;16.00;99.90
26081;DHT22;13991;51.174;4.438;2023-08-30T04:45:24;16.10;99.90
26081;DHT22;13991;51.174;4.438;2023-08-30T04:47:50;16.10;99.90
26081;DHT22;13991;51.174;4.438;2023-08-30T04:50:15;16.10;99.90
26081;DHT22;13991;51.174;4.438;2023-08-30T04:52:42;16.10;99.90
26081;DHT22;13991;51.174;4.438;2023-08-30T04:55:08;16.10;99.90
26081;DHT22;13991;51.174;4.438;2023-08-30T04:57:34;16.00;99.90
26081;DHT22;13991;51.174;4.438;2023-08-30T05:00:00;16.00;99.90
26081;DHT22;13991;51.174;4.438;2023-08-30T05:02:30;16.00;99.90
26081;DHT22;13991;51.174;4.438;2023-08-30T05:04:55;16.00;99.90
26081;DHT22;13991;51.174;4.438;2023-08-30T05:07:21;16.00;99.90
26081;DHT22;13991;51.174;4.438;2023-08-30T05:09:47;16.00;99.90
26081;DHT22;13991;51.174;4.438;2023-08-30T05:12:12;15.90;99.90
26081;DHT22;13991;51.174;4.438;2023-08-30T05:14:38;15.80;99.90
26081;DHT22;13991;51.174;4.438;2023-08-30T05:17:06;15.80;99.90
26081;DHT22;13991;51.174;4.438;2023-08-30T05:19:31;15.80;99.90
26081;DHT22;13991;51.174;4.438;2023-08-30T05:21:57;15.80;99.90
26081;DHT22;13991;51.174;4.438;2023-08-30T05:24:23;15.90;99.90
26081;DHT22;13991;51.174;4.438;2023-08-30T05:26:48;15.80;99.90
26081;DHT22;13991;51.174;4.438;2023-08-30T05:29:14;15.70;99.90
26081;DHT22;13991;51.174;4.438;2023-08-30T05:31:41;15.70;99.90
26081;DHT22;13991;51.174;4.438;2023-08-30T05:34:06;15.60;99.90
26081;DHT22;13991;51.174;4.438;2023-08-30T05:36:32;15.60;99.90
26081;DHT22;13991;51.174;4.438;2023-08-30T05:38:58;15.60;99.90
26081;DHT22;13991;51.174;4.438;2023-08-30T05:41:24;15.60;99.90
26081;DHT22;13991;51.174;4.438;2023-08-30T05:43:51;15.60;99.90
26081;DHT22;13991;51.174;4.438;2023-08-30T05:46:16;15.60;99.90
26081;DHT22;13991;51.174;4.438;2023-08-30T05:48:42;15.50;99.90
26081;DHT22;13991;51.174;4.438;2023-08-30T05:51:08;15.50;99.90
26081;DHT22;13991;51.174;4.438;2023-08-30T05:53:34;15.50;99.90
26081;DHT22;13991;51.174;4.438;2023-08-30T05:56:00;15.50;99.90
26081;DHT22;13991;51.174;4.438;2023-08-30T05:58:26;15.40;99.90
26081;DHT22;13991;51.174;4.438;2023-08-30T06:00:51;15.40;99.90
26081;DHT22;13991;51.174;4.438;2023-08-30T06:03:17;15.40;99.90
26081;DHT22;13991;51.174;4.438;2023-08-30T06:05:42;15.40;99.90
26081;DHT22;13991;51.174;4.438;2023-08-30T06:08:08;15.40;99.90
26081;DHT22;13991;51.174;4.438;2023-08-30T06:10:36;15.40;99.90
26081;DHT22;13991;51.174;4.438;2023-08-30T06:13:01;15.50;99.90
26081;DHT22;13991;51.174;4.438;2023-08-30T06:15:28;15.50;99.90
26081;DHT22;13991;51.174;4.438;2023-08-30T06:17:54;15.50;99.90
26081;DHT22;13991;51.174;4.438;2023-08-30T06:20:19;15.30;99.90
26081;DHT22;13991;51.174;4.438;2023-08-30T06:22:45;15.40;99.90
26081;DHT22;13991;51.174;4.438;2023-08-30T06:25:11;15.50;99.90
26081;DHT22;13991;51.174;4.438;2023-08-30T06:27:42;15.50;99.90
26081;DHT22;13991;51.174;4.438;2023-08-30T06:30:12;15.50;99.90
26081;DHT22;13991;51.174;4.438;2023-08-30T06:32:37;15.60;99.90
26081;DHT22;13991;51.174;4.438;2023-08-30T06:35:03;15.50;99.90
26081;DHT22;13991;51.174;4.438;2023-08-30T06:37:29;15.50;99.90
26081;DHT22;13991;51.174;4.438;2023-08-30T06:39:55;15.40;99.90
26081;DHT22;13991;51.174;4.438;2023-08-30T06:42:21;15.50;99.90
26081;DHT22;13991;51.174;4.438;2023-08-30T06:44:46;15.50;99.90
26081;DHT22;13991;51.174;4.438;2023-08-30T06:47:12;15.50;99.90
26081;DHT22;13991;51.174;4.438;2023-08-30T06:49:38;15.40;99.90
26081;DHT22;13991;51.174;4.438;2023-08-30T06:52:03;15.40;99.90
26081;DHT22;13991;51.174;4.438;2023-08-30T06:54:34;15.50;99.90
26081;DHT22;13991;51.174;4.438;2023-08-30T06:57:00;15.60;99.90
26081;DHT22;13991;51.174;4.438;2023-08-30T06:59:29;15.70;99.90
26081;DHT22;13991;51.174;4.438;2023-08-30T07:01:55;15.70;99.90
26081;DHT22;13991;51.174;4.438;2023-08-30T07:04:21;15.70;99.90
26081;DHT22;13991;51.174;4.438;2023-08-30T07:06:47;15.70;99.90
26081;DHT22;13991;51.174;4.438;2023-08-30T07:09:12;15.80;99.90
26081;DHT22;13991;51.174;4.438;2023-08-30T07:11:38;15.80;99.90
26081;DHT22;13991;51.174;4.438;2023-08-30T07:14:04;15.80;99.90
26081;DHT22;13991;51.174;4.438;2023-08-30T07:16:30;15.80;99.90
26081;DHT22;13991;51.174;4.438;2023-08-30T07:18:57;15.90;99.90
26081;DHT22;13991;51.174;4.438;2023-08-30T07:21:23;16.00;99.90
26081;DHT22;13991;51.174;4.438;2023-08-30T07:23:49;16.00;99.90
26081;DHT22;13991;51.174;4.438;2023-08-30T07:26:15;16.00;99.90
26081;DHT22;13991;51.174;4.438;2023-08-30T07:28:40;15.90;99.90
26081;DHT22;13991;51.174;4.438;2023-08-30T07:31:06;15.90;99.90
26081;DHT22;13991;51.174;4.438;2023-08-30T07:33:32;16.00;99.90
26081;DHT22;13991;51.174;4.438;2023-08-30T07:35:59;15.90;99.90
26081;DHT22;13991;51.174;4.438;2023-08-30T07:38:25;16.00;99.90
26081;DHT22;13991;51.174;4.438;2023-08-30T07:40:51;16.10;99.90
26081;DHT22;13991;51.174;4.438;2023-08-30T07:43:17;16.00;99.90
26081;DHT22;13991;51.174;4.438;2023-08-30T07:45:42;16.10;99.90
26081;DHT22;13991;51.174;4.438;2023-08-30T07:48:08;16.10;99.90
26081;DHT22;13991;51.174;4.438;2023-08-30T07:50:33;16.20;99.90
26081;DHT22;13991;51.174;4.438;2023-08-30T07:52:59;16.20;99.90
26081;DHT22;13991;51.174;4.438;2023-08-30T07:55:25;16.20;99.90
26081;DHT22;13991;51.174;4.438;2023-08-30T07:57:50;16.10;99.90
26081;DHT22;13991;51.174;4.438;2023-08-30T08:00:16;16.20;99.90
26081;DHT22;13991;51.174;4.438;2023-08-30T08:02:42;16.00;99.90
26081;DHT22;13991;51.174;4.438;2023-08-30T08:05:08;16.20;99.90
26081;DHT22;13991;51.174;4.438;2023-08-30T08:07:35;16.30;99.90
26081;DHT22;13991;51.174;4.438;2023-08-30T08:10:01;16.30;99.90
26081;DHT22;13991;51.174;4.438;2023-08-30T08:12:27;16.40;99.90
26081;DHT22;13991;51.174;4.438;2023-08-30T08:14:52;16.50;99.90
26081;DHT22;13991;51.174;4.438;2023-08-30T08:17:18;16.50;99.90
26081;DHT22;13991;51.174;4.438;2023-08-30T08:19:44;16.60;99.90
26081;DHT22;13991;51.174;4.438;2023-08-30T08:22:10;16.60;99.90
26081;DHT22;13991;51.174;4.438;2023-08-30T08:24:35;16.80;99.90
26081;DHT22;13991;51.174;4.438;2023-08-30T08:27:01;17.00;99.90
26081;DHT22;13991;51.174;4.438;2023-08-30T08:29:27;17.00;99.90
26081;DHT22;13991;51.174;4.438;2023-08-30T08:31:54;17.10;99.90
26081;DHT22;13991;51.174;4.438;2023-08-30T08:34:19;17.20;99.90
26081;DHT22;13991;51.174;4.438;2023-08-30T08:36:45;17.20;99.90
26081;DHT22;13991;51.174;4.438;2023-08-30T08:39:11;17.30;99.90
26081;DHT22;13991;51.174;4.438;2023-08-30T08:41:41;17.20;99.90
26081;DHT22;13991;51.174;4.438;2023-08-30T08:44:08;17.20;99.90
26081;DHT22;13991;51.174;4.438;2023-08-30T08:46:38;17.20;99.90
26081;DHT22;13991;51.174;4.438;2023-08-30T08:49:14;17.40;99.90
26081;DHT22;13991;51.174;4.438;2023-08-30T08:51:40;17.50;99.90
26081;DHT22;13991;51.174;4.438;2023-08-30T08:54:07;17.50;99.90
26081;DHT22;13991;51.174;4.438;2023-08-30T08:56:35;17.60;99.90
26081;DHT22;13991;51.174;4.438;2023-08-30T08:59:02;17.50;99.90
26081;DHT22;13991;51.174;4.438;2023-08-30T09:01:28;17.60;99.90
26081;DHT22;13991;51.174;4.438;2023-08-30T09:03:54;17.80;99.90
26081;DHT22;13991;51.174;4.438;2023-08-30T09:06:21;18.00;99.90
26081;DHT22;13991;51.174;4.438;2023-08-30T09:08:46;18.20;99.90
26081;DHT22;13991;51.174;4.438;2023-08-30T09:11:12;18.20;99.90
26081;DHT22;13991;51.174;4.438;2023-08-30T09:13:38;18.20;99.90
26081;DHT22;13991;51.174;4.438;2023-08-30T09:16:12;18.50;99.90
26081;DHT22;13991;51.174;4.438;2023-08-30T09:18:38;18.50;99.90
26081;DHT22;13991;51.174;4.438;2023-08-30T09:21:08;18.40;99.90
26081;DHT22;13991;51.174;4.438;2023-08-30T09:23:34;18.40;99.90
26081;DHT22;13991;51.174;4.438;2023-08-30T09:26:00;18.40;99.90
26081;DHT22;13991;51.174;4.438;2023-08-30T09:28:26;18.20;99.90
26081;DHT22;13991;51.174;4.438;2023-08-30T09:30:52;18.20;99.90
26081;DHT22;13991;51.174;4.438;2023-08-30T09:33:36;18.30;99.90
26081;DHT22;13991;51.174;4.438;2023-08-30T09:36:02;18.50;99.90
26081;DHT22;13991;51.174;4.438;2023-08-30T09:38:27;18.60;99.90
26081;DHT22;13991;51.174;4.438;2023-08-30T09:41:03;18.20;99.90
26081;DHT22;13991;51.174;4.438;2023-08-30T09:43:30;18.20;99.90
26081;DHT22;13991;51.174;4.438;2023-08-30T09:45:57;18.40;99.90
26081;DHT22;13991;51.174;4.438;2023-08-30T09:48:27;18.20;99.90
26081;DHT22;13991;51.174;4.438;2023-08-30T09:50:54;18.30;99.90
26081;DHT22;13991;51.174;4.438;2023-08-30T09:53:21;18.50;99.90
26081;DHT22;13991;51.174;4.438;2023-08-30T09:55:50;18.60;99.90
26081;DHT22;13991;51.174;4.438;2023-08-30T09:58:17;18.90;99.90
26081;DHT22;13991;51.174;4.438;2023-08-30T10:00:43;19.20;99.90
26081;DHT22;13991;51.174;4.438;2023-08-30T10:03:09;19.20;99.90
26081;DHT22;13991;51.174;4.438;2023-08-30T10:05:35;18.90;99.90
26081;DHT22;13991;51.174;4.438;2023-08-30T10:08:02;18.50;99.90
26081;DHT22;13991;51.174;4.438;2023-08-30T10:10:30;18.30;99.90
26081;DHT22;13991;51.174;4.438;2023-08-30T10:12:57;17.90;99.90
26081;DHT22;13991;51.174;4.438;2023-08-30T10:15:25;17.70;99.90
26081;DHT22;13991;51.174;4.438;2023-08-30T10:17:54;17.60;99.90
26081;DHT22;13991;51.174;4.438;2023-08-30T10:20:21;17.70;99.90
26081;DHT22;13991;51.174;4.438;2023-08-30T10:22:47;17.90;99.90
26081;DHT22;13991;51.174;4.438;2023-08-30T10:25:19;18.30;99.90
26081;DHT22;13991;51.174;4.438;2023-08-30T10:27:47;18.70;99.90
26081;DHT22;13991;51.174;4.438;2023-08-30T10:30:15;19.00;99.90
26081;DHT22;13991;51.174;4.438;2023-08-30T10:32:42;18.80;99.90
26081;DHT22;13991;51.174;4.438;2023-08-30T10:35:13;18.80;99.90
26081;DHT22;13991;51.174;4.438;2023-08-30T10:37:39;18.60;99.90
26081;DHT22;13991;51.174;4.438;2023-08-30T10:40:05;18.50;99.90
26081;DHT22;13991;51.174;4.438;2023-08-30T10:42:34;18.60;99.90
26081;DHT22;13991;51.174;4.438;2023-08-30T10:45:04;18.50;99.90
26081;DHT22;13991;51.174;4.438;2023-08-30T10:47:32;18.20;99.90
26081;DHT22;13991;51.174;4.438;2023-08-30T10:50:00;18.00;99.90
26081;DHT22;13991;51.174;4.438;2023-08-30T10:52:27;18.00;99.90
26081;DHT22;13991;51.174;4.438;2023-08-30T10:55:03;17.90;99.90
26081;DHT22;13991;51.174;4.438;2023-08-30T10:57:29;18.10;99.90
26081;DHT22;13991;51.174;4.438;2023-08-30T11:02:37;18.50;99.90
26081;DHT22;13991;51.174;4.438;2023-08-30T11:05:08;18.60;99.90
26081;DHT22;13991;51.174;4.438;2023-08-30T11:07:34;18.50;99.90
26081;DHT22;13991;51.174;4.438;2023-08-30T11:10:00;18.50;99.90
26081;DHT22;13991;51.174;4.438;2023-08-30T11:12:26;18.50;99.90
26081;DHT22;13991;51.174;4.438;2023-08-30T11:14:54;18.50;99.90
26081;DHT22;13991;51.174;4.438;2023-08-30T11:17:20;18.30;99.90
26081;DHT22;13991;51.174;4.438;2023-08-30T11:19:48;18.30;99.90
26081;DHT22;13991;51.174;4.438;2023-08-30T11:22:15;18.30;99.90
26081;DHT22;13991;51.174;4.438;2023-08-30T11:24:45;18.30;99.90
26081;DHT22;13991;51.174;4.438;2023-08-30T11:27:11;18.30;99.90
26081;DHT22;13991;51.174;4.438;2023-08-30T11:29:39;18.50;99.90
26081;DHT22;13991;51.174;4.438;2023-08-30T11:32:07;18.70;99.90
26081;DHT22;13991;51.174;4.438;2023-08-30T11:34:33;18.80;99.90
26081;DHT22;13991;51.174;4.438;2023-08-30T11:36:58;19.00;99.90
26081;DHT22;13991;51.174;4.438;2023-08-30T11:39:28;19.30;99.90
26081;DHT22;13991;51.174;4.438;2023-08-30T11:41:54;19.50;99.90
26081;DHT22;13991;51.174;4.438;2023-08-30T11:44:23;19.80;99.90
26081;DHT22;13991;51.174;4.438;2023-08-30T11:46:49;20.10;99.90
26081;DHT22;13991;51.174;4.438;2023-08-30T11:49:18;20.20;99.90
26081;DHT22;13991;51.174;4.438;2023-08-30T11:51:44;20.10;99.90
26081;DHT22;13991;51.174;4.438;2023-08-30T11:54:09;19.70;99.90
26081;DHT22;13991;51.174;4.438;2023-08-30T11:56:36;19.60;99.90
26081;DHT22;13991;51.174;4.438;2023-08-30T11:59:02;19.50;99.90
26081;DHT22;13991;51.174;4.438;2023-08-30T12:01:29;19.50;99.90
26081;DHT22;13991;51.174;4.438;2023-08-30T12:03:55;19.10;99.90
26081;DHT22;13991;51.174;4.438;2023-08-30T12:06:23;19.10;99.90
26081;DHT22;13991;51.174;4.438;2023-08-30T12:08:48;18.90;99.90
26081;DHT22;13991;51.174;4.438;2023-08-30T12:11:22;18.80;99.90
26081;DHT22;13991;51.174;4.438;2023-08-30T12:13:48;18.70;99.90
26081;DHT22;13991;51.174;4.438;2023-08-30T12:16:17;18.60;99.90
26081;DHT22;13991;51.174;4.438;2023-08-30T12:18:43;18.90;99.90
26081;DHT22;13991;51.174;4.438;2023-08-30T12:21:09;19.30;99.90
26081;DHT22;13991;51.174;4.438;2023-08-30T12:23:35;19.50;99.90
26081;DHT22;13991;51.174;4.438;2023-08-30T12:26:05;19.70;99.90
26081;DHT22;13991;51.174;4.438;2023-08-30T12:28:41;19.70;99.90
26081;DHT22;13991;51.174;4.438;2023-08-30T12:31:10;20.00;99.90
26081;DHT22;13991;51.174;4.438;2023-08-30T12:33:36;19.90;99.90
26081;DHT22;13991;51.174;4.438;2023-08-30T12:36:04;19.70;99.90
26081;DHT22;13991;51.174;4.438;2023-08-30T12:38:30;19.50;99.90
26081;DHT22;13991;51.174;4.438;2023-08-30T12:40:56;19.40;99.90
26081;DHT22;13991;51.174;4.438;2023-08-30T12:43:23;19.60;99.90
26081;DHT22;13991;51.174;4.438;2023-08-30T12:45:49;19.70;99.90
26081;DHT22;13991;51.174;4.438;2023-08-30T12:48:17;19.70;99.90
26081;DHT22;13991;51.174;4.438;2023-08-30T12:50:46;20.00;99.90
26081;DHT22;13991;51.174;4.438;2023-08-30T12:53:12;20.20;99.90
26081;DHT22;13991;51.174;4.438;2023-08-30T12:55:38;20.30;99.90
26081;DHT22;13991;51.174;4.438;2023-08-30T12:58:07;19.80;99.90
26081;DHT22;13991;51.174;4.438;2023-08-30T13:00:33;19.40;99.90
26081;DHT22;13991;51.174;4.438;2023-08-30T13:02:59;19.10;99.90
26081;DHT22;13991;51.174;4.438;2023-08-30T13:05:25;18.90;99.90
26081;DHT22;13991;51.174;4.438;2023-08-30T13:07:51;19.20;99.90
26081;DHT22;13991;51.174;4.438;2023-08-30T13:10:17;19.30;99.90
26081;DHT22;13991;51.174;4.438;2023-08-30T13:12:43;19.20;99.90
26081;DHT22;13991;51.174;4.438;2023-08-30T13:15:09;19.00;99.90
26081;DHT22;13991;51.174;4.438;2023-08-30T13:17:35;18.80;99.90
26081;DHT22;13991;51.174;4.438;2023-08-30T13:20:01;18.90;99.90
26081;DHT22;13991;51.174;4.438;2023-08-30T13:22:27;19.10;99.90
26081;DHT22;13991;51.174;4.438;2023-08-30T13:24:53;19.10;99.90
26081;DHT22;13991;51.174;4.438;2023-08-30T13:27:19;18.90;99.90
26081;DHT22;13991;51.174;4.438;2023-08-30T13:29:45;18.80;99.90
26081;DHT22;13991;51.174;4.438;2023-08-30T13:32:12;18.90;99.90
26081;DHT22;13991;51.174;4.438;2023-08-30T13:34:38;18.90;99.90
26081;DHT22;13991;51.174;4.438;2023-08-30T13:37:04;19.40;99.90
26081;DHT22;13991;51.174;4.438;2023-08-30T13:39:30;19.50;99.90
26081;DHT22;13991;51.174;4.438;2023-08-30T13:41:55;19.40;99.90
26081;DHT22;13991;51.174;4.438;2023-08-30T13:44:21;19.40;99.90
26081;DHT22;13991;51.174;4.438;2023-08-30T13:46:47;19.60;99.90
26081;DHT22;13991;51.174;4.438;2023-08-30T13:49:15;19.40;99.90
26081;DHT22;13991;51.174;4.438;2023-08-30T13:51:41;19.30;99.90
26081;DHT22;13991;51.174;4.438;2023-08-30T13:54:07;19.30;99.90
26081;DHT22;13991;51.174;4.438;2023-08-30T13:56:33;19.50;99.90
26081;DHT22;13991;51.174;4.438;2023-08-30T13:58:59;19.70;99.90
26081;DHT22;13991;51.174;4.438;2023-08-30T14:01:24;19.60;99.90
26081;DHT22;13991;51.174;4.438;2023-08-30T14:03:50;19.40;99.90
26081;DHT22;13991;51.174;4.438;2023-08-30T14:06:16;19.60;99.90
26081;DHT22;13991;51.174;4.438;2023-08-30T14:08:42;19.60;99.90
26081;DHT22;13991;51.174;4.438;2023-08-30T14:11:08;19.60;99.90
26081;DHT22;13991;51.174;4.438;2023-08-30T14:13:34;19.60;99.90
26081;DHT22;13991;51.174;4.438;2023-08-30T14:16:00;19.50;99.90
26081;DHT22;13991;51.174;4.438;2023-08-30T14:18:27;19.30;99.90
26081;DHT22;13991;51.174;4.438;2023-08-30T14:20:56;19.40;99.90
26081;DHT22;13991;51.174;4.438;2023-08-30T14:23:25;19.40;99.90
26081;DHT22;13991;51.174;4.438;2023-08-30T14:26:05;19.30;99.90
26081;DHT22;13991;51.174;4.438;2023-08-30T14:28:37;19.30;99.90
26081;DHT22;13991;51.174;4.438;2023-08-30T14:31:06;19.00;99.90
26081;DHT22;13991;51.174;4.438;2023-08-30T14:33:31;19.00;99.90
26081;DHT22;13991;51.174;4.438;2023-08-30T14:35:57;19.20;99.90
26081;DHT22;13991;51.174;4.438;2023-08-30T14:38:23;19.30;99.90
26081;DHT22;13991;51.174;4.438;2023-08-30T14:40:59;19.20;99.90
26081;DHT22;13991;51.174;4.438;2023-08-30T14:43:24;19.30;99.90
26081;DHT22;13991;51.174;4.438;2023-08-30T14:45:50;19.30;99.90
26081;DHT22;13991;51.174;4.438;2023-08-30T14:48:16;19.30;99.90
26081;DHT22;13991;51.174;4.438;2023-08-30T14:50:43;19.60;99.90
26081;DHT22;13991;51.174;4.438;2023-08-30T14:53:09;19.70;99.90
26081;DHT22;13991;51.174;4.438;2023-08-30T14:55:35;19.70;99.90
26081;DHT22;13991;51.174;4.438;2023-08-30T14:58:01;19.80;99.90
26081;DHT22;13991;51.174;4.438;2023-08-30T15:00:27;19.50;99.90
26081;DHT22;13991;51.174;4.438;2023-08-30T15:02:53;19.50;99.90
26081;DHT22;13991;51.174;4.438;2023-08-30T15:05:19;19.30;99.90
26081;DHT22;13991;51.174;4.438;2023-08-30T15:07:44;19.20;99.90
26081;DHT22;13991;51.174;4.438;2023-08-30T15:10:10;18.70;99.90
26081;DHT22;13991;51.174;4.438;2023-08-30T15:12:37;18.50;99.90
26081;DHT22;13991;51.174;4.438;2023-08-30T15:15:03;18.70;99.90
26081;DHT22;13991;51.174;4.438;2023-08-30T15:17:29;18.80;99.90
26081;DHT22;13991;51.174;4.438;2023-08-30T15:19:57;18.60;99.90
26081;DHT22;13991;51.174;4.438;2023-08-30T15:22:23;18.60;99.90
26081;DHT22;13991;51.174;4.438;2023-08-30T15:24:49;18.50;99.90
26081;DHT22;13991;51.174;4.438;2023-08-30T15:27:15;18.60;99.90
26081;DHT22;13991;51.174;4.438;2023-08-30T15:29:40;18.60;99.90
26081;DHT22;13991;51.174;4.438;2023-08-30T15:32:06;18.50;99.90